Aérodrome :
LOGIN :

S'inscrire | Disclaimer

   EN    FR    IT 

 










Légende :    VFR   VFR Marginal   IFR   IFR Intensif   IFR Très Intensif
Visi : 
Plafond : 
>= 8 km
>= 3000ft
5 à 8 km
1000 à 3000 ft
1500m à 5 km
500 à 1000 ft
800 à 1500m
200 à 500 ft
< 800m
< 200 ft
Symboles :   Orages  Brouillard  Fortes neiges  Fortes précipitations  Vent > 20 kt
SIGMETs :   Divers  Orages  Givrage  Turbulence  Onde Orograph.  Cendres Volcan.






- Altitude de l'aérodrome : 348 ft
- Code IATA : LDV


LFRJ - Landivisiau

DERNIER METAR :
  • 151800Z AUTO 20013KT 9999 -RA SCT012 BKN022 BKN044 14/12 Q1007 TEMPO 4800 RADZ OVC007

METARs EXPIRÉS :
  • 151730Z AUTO 19012KT 9999 -RA BKN016 BKN028 BKN056 14/12 Q1007 TEMPO 4800 RADZ OVC007
  • 151700Z AUTO 19010KT 9999 -RA SCT015 BKN020 BKN029 14/12 Q1007 TEMPO OVC008 BECMG 23015G27KT
  • 151630Z AUTO 20010KT 9999 FEW023 BKN036 BKN060 14/12 Q1007 TEMPO OVC008 BECMG 23015G27KT
  • 151600Z AUTO 21012KT 9999 SCT017 BKN043 BKN096 14/12 Q1007 BECMG 23015G27KT BKN012
  • 151530Z AUTO 22013KT 9999 BKN020 BKN049 BKN074 14/11 Q1007 BECMG 23015G27KT BKN012

TAF TAF LFRJ
Valide du 15 à 18h jusqu'au 16 à 03h UTC


151700Z 1518/1603 18011G25KT 9999 -RA BKN017 BKN028
TEMPO 1518/1520 4800 RADZ OVC007
BECMG 1522/1524 BKN005
TEMPO 1601/1603 4000 DZ OVC003



MET'MAP, la Météo Aéronautique d'un coup d'oeil ! - Copyright ORBIFLY Décembre 2007 - Disclaimer

ORBIFLY MET'MAP TEAM :

Programmation & Développement : Alexandra Zaïnal
Conception & Développement : Baudouin d'Aumeries
Co-Programmation & Développement : Marc-Olivier Méhu
Soutien technique & logistique : Manuel Goepfert

Contact : metmap@orbifly.com




SOURCES & CREDITS :

   NOAA